createdAt,value
2018-01-27T00:01:37.832Z,18.20
2018-01-27T00:04:05.473Z,20.27
2018-01-27T00:06:33.052Z,19.10
2018-01-27T00:09:00.689Z,18.70
2018-01-27T00:26:26.084Z,20.90
2018-01-27T00:28:53.727Z,17.03
2018-01-27T00:31:22.761Z,18.93
2018-01-27T00:33:50.334Z,19.37
2018-01-27T00:36:17.917Z,17.07
2018-01-27T00:38:45.477Z,16.13
2018-01-27T00:41:13.863Z,15.87
2018-01-27T00:43:41.528Z,15.97
2018-01-27T00:46:09.302Z,13.67
2018-01-27T00:48:36.913Z,15.67
2018-01-27T00:51:04.822Z,15.87
2018-01-27T00:53:32.470Z,13.73
2018-01-27T00:56:00.050Z,16.23
2018-01-27T00:58:27.702Z,17.10
2018-01-27T01:00:55.290Z,27.30
2018-01-27T01:03:23.157Z,19.17
2018-01-27T01:05:50.740Z,15.50
2018-01-27T01:08:18.297Z,19.70
2018-01-27T01:10:45.843Z,16.90
2018-01-27T01:13:13.431Z,18.60
2018-01-27T01:15:40.985Z,17.87
2018-01-27T01:18:08.606Z,19.70
2018-01-27T01:20:36.340Z,19.23
2018-01-27T01:23:04.169Z,17.70
2018-01-27T01:25:31.956Z,17.80
2018-01-27T01:27:59.626Z,16.10
2018-01-27T01:30:27.210Z,16.53
2018-01-27T01:32:54.789Z,14.97
2018-01-27T01:35:22.376Z,16.37
2018-01-27T01:37:49.939Z,16.03
2018-01-27T01:40:17.523Z,13.70
2018-01-27T01:42:50.796Z,14.70
2018-01-27T01:45:18.340Z,15.73
2018-01-27T01:47:45.926Z,14.27
2018-01-27T01:50:13.659Z,16.93
2018-01-27T01:52:41.215Z,17.57
2018-01-27T01:55:09.233Z,14.20
2018-01-27T01:57:36.925Z,16.23
2018-01-27T02:00:04.979Z,15.93
2018-01-27T02:02:32.858Z,13.07
2018-01-27T02:05:00.395Z,16.23
2018-01-27T02:07:28.004Z,12.63
2018-01-27T02:09:55.620Z,13.63
2018-01-27T02:12:23.212Z,14.00
2018-01-27T02:14:50.798Z,15.60
2018-01-27T02:17:18.398Z,16.37
2018-01-27T02:19:46.008Z,15.33
2018-01-27T02:22:13.778Z,16.40
2018-01-27T02:24:41.499Z,13.37
2018-01-27T02:27:09.784Z,13.30
2018-01-27T02:29:37.545Z,16.37
2018-01-27T02:32:05.136Z,15.90
2018-01-27T02:34:32.791Z,17.17
2018-01-27T02:37:00.356Z,19.70
2018-01-27T02:39:27.933Z,15.90
2018-01-27T02:41:55.495Z,13.63
2018-01-27T02:44:23.158Z,17.80
2018-01-27T02:46:51.114Z,15.83
2018-01-27T02:49:19.390Z,14.37
2018-01-27T02:51:47.372Z,13.60
2018-01-27T02:54:14.948Z,15.03
2018-01-27T02:56:42.520Z,15.47
2018-01-27T02:59:10.109Z,14.83
2018-01-27T03:01:38.810Z,13.37
2018-01-27T03:04:06.391Z,14.87
2018-01-27T03:06:33.959Z,16.30
2018-01-27T03:09:01.541Z,15.57
2018-01-27T03:11:29.247Z,16.33
2018-01-27T03:13:56.918Z,14.67
2018-01-27T03:19:15.364Z,15.97
2018-01-27T03:21:42.933Z,15.80
2018-01-27T03:24:10.557Z,16.87
2018-01-27T03:26:38.103Z,14.13
2018-01-27T03:29:05.749Z,15.93
2018-01-27T03:31:33.325Z,16.77
2018-01-27T03:34:00.919Z,14.97
2018-01-27T03:36:30.772Z,15.43
2018-01-27T03:38:58.554Z,16.50
2018-01-27T03:41:26.552Z,16.60
2018-01-27T03:43:54.124Z,16.00
2018-01-27T03:46:21.741Z,18.10
2018-01-27T03:48:49.419Z,14.90
2018-01-27T03:51:17.125Z,16.13
2018-01-27T03:53:45.170Z,14.57
2018-01-27T03:56:12.761Z,14.67
2018-01-27T03:58:42.877Z,15.83
2018-01-27T04:01:10.590Z,14.30
2018-01-27T04:03:38.162Z,20.57
2018-01-27T04:06:05.746Z,19.27
2018-01-27T04:08:33.337Z,17.50
2018-01-27T04:11:00.907Z,14.90
2018-01-27T04:13:28.477Z,14.70
2018-01-27T04:15:56.010Z,14.30
2018-01-27T04:18:23.590Z,15.33
2018-01-27T04:20:51.214Z,13.57
2018-01-27T04:23:19.199Z,15.43
2018-01-27T04:25:46.785Z,18.70
2018-01-27T04:28:14.386Z,21.07
2018-01-27T04:30:41.933Z,16.80
2018-01-27T04:33:10.697Z,15.00
2018-01-27T04:35:38.319Z,14.40
2018-01-27T04:38:05.876Z,14.93
2018-01-27T04:40:33.424Z,14.27
2018-01-27T04:43:01.000Z,16.07
2018-01-27T04:45:28.572Z,13.57
2018-01-27T04:47:56.142Z,13.73
2018-01-27T04:50:23.803Z,13.67
2018-01-27T04:52:51.379Z,14.87
2018-01-27T04:55:18.936Z,13.90
2018-01-27T04:57:46.525Z,15.20
2018-01-27T05:00:14.117Z,13.97
2018-01-27T05:02:41.675Z,13.80
2018-01-27T05:05:09.590Z,15.57
2018-01-27T05:07:37.174Z,16.47
2018-01-27T05:10:04.771Z,18.30
2018-01-27T05:12:32.328Z,16.00
2018-01-27T05:14:59.925Z,14.03
2018-01-27T05:17:28.164Z,14.00
2018-01-27T05:19:55.728Z,14.10
2018-01-27T05:22:23.882Z,14.53
2018-01-27T05:24:51.461Z,15.57
2018-01-27T05:27:19.015Z,16.00
2018-01-27T05:29:46.579Z,16.33
2018-01-27T05:32:14.112Z,17.03
2018-01-27T05:34:41.708Z,15.03
2018-01-27T05:37:09.838Z,18.97
2018-01-27T05:39:37.380Z,14.60
2018-01-27T05:42:04.978Z,17.47
2018-01-27T05:44:32.524Z,18.30
2018-01-27T05:47:00.079Z,18.87
2018-01-27T05:49:27.673Z,20.10
2018-01-27T05:51:55.258Z,17.57
2018-01-27T05:54:23.504Z,17.13
2018-01-27T05:56:51.072Z,16.57
2018-01-27T05:59:18.681Z,17.60
2018-01-27T06:01:46.320Z,17.50
2018-01-27T06:04:13.904Z,16.57
2018-01-27T06:06:41.481Z,17.53
2018-01-27T06:09:09.789Z,21.37
2018-01-27T06:11:37.400Z,22.93
2018-01-27T06:14:05.012Z,17.83
2018-01-27T06:16:32.558Z,15.17
2018-01-27T06:19:00.119Z,15.20
2018-01-27T06:21:27.716Z,16.00
2018-01-27T06:23:55.338Z,17.13
2018-01-27T06:26:22.958Z,15.77
2018-01-27T06:28:50.537Z,14.50
2018-01-27T06:31:18.119Z,17.60
2018-01-27T06:33:45.683Z,17.07
2018-01-27T06:36:13.293Z,16.30
2018-01-27T06:38:40.859Z,15.00
2018-01-27T06:41:09.201Z,16.57
2018-01-27T06:43:37.047Z,14.57
2018-01-27T06:46:04.621Z,17.13
2018-01-27T06:48:32.219Z,17.50
2018-01-27T06:50:59.835Z,18.63
2018-01-27T06:53:27.380Z,14.67
2018-01-27T06:55:54.932Z,15.93
2018-01-27T06:58:23.692Z,16.40
2018-01-27T07:00:51.240Z,16.30
2018-01-27T07:03:20.069Z,15.20
2018-01-27T07:05:47.723Z,15.70
2018-01-27T07:08:15.283Z,15.93
2018-01-27T07:10:42.825Z,15.20
2018-01-27T07:13:10.541Z,16.70
2018-01-27T07:15:38.106Z,16.67
2018-01-27T07:18:08.106Z,15.27
2018-01-27T07:20:35.861Z,13.70
2018-01-27T07:23:03.478Z,14.93
2018-01-27T07:25:31.116Z,14.07
2018-01-27T07:27:59.088Z,15.10
2018-01-27T07:30:26.954Z,15.80
2018-01-27T07:32:55.530Z,15.57
2018-01-27T07:35:23.318Z,13.67
2018-01-27T07:37:50.966Z,13.47
2018-01-27T07:40:18.582Z,16.07
2018-01-27T07:42:46.152Z,15.33
2018-01-27T07:45:13.702Z,14.50
2018-01-27T07:47:41.277Z,14.03
2018-01-27T07:50:11.169Z,12.73
2018-01-27T07:52:43.936Z,12.37
2018-01-27T07:55:13.007Z,14.10
2018-01-27T07:57:40.643Z,12.70
2018-01-27T08:00:08.208Z,15.10
2018-01-27T08:02:35.765Z,18.97
2018-01-27T08:05:03.318Z,16.57
2018-01-27T08:07:30.909Z,13.17
2018-01-27T08:09:58.468Z,15.53
2018-01-27T08:12:26.937Z,14.30
2018-01-27T08:14:54.543Z,13.93
2018-01-27T08:17:22.418Z,16.27
2018-01-27T08:19:50.015Z,17.97
2018-01-27T08:22:17.593Z,17.27
2018-01-27T08:24:45.162Z,15.47
2018-01-27T08:27:13.211Z,16.00
2018-01-27T08:29:40.783Z,17.50
2018-01-27T08:32:08.376Z,19.07
2018-01-27T08:34:35.935Z,20.67
2018-01-27T08:37:03.519Z,16.20
2018-01-27T08:39:31.112Z,14.43
2018-01-27T08:41:58.674Z,15.60
2018-01-27T08:44:26.271Z,14.67
2018-01-27T08:46:53.823Z,18.63
2018-01-27T08:49:21.434Z,14.93
2018-01-27T08:51:49.066Z,14.23
2018-01-27T08:54:16.833Z,15.13
2018-01-27T08:56:44.396Z,15.17
2018-01-27T08:59:12.107Z,15.53
2018-01-27T09:01:39.701Z,15.20
2018-01-27T09:04:07.325Z,14.67
2018-01-27T09:06:34.906Z,15.13
2018-01-27T09:09:02.564Z,13.87
2018-01-27T09:11:30.149Z,14.00
2018-01-27T09:13:57.827Z,14.30
2018-01-27T09:16:26.952Z,13.30
2018-01-27T09:18:54.493Z,14.80
2018-01-27T09:21:23.015Z,13.53
2018-01-27T09:23:50.688Z,14.73
2018-01-27T09:26:18.246Z,13.60
2018-01-27T09:28:45.812Z,14.57
2018-01-27T09:31:13.581Z,17.50
2018-01-27T09:33:41.174Z,16.57
2018-01-27T09:36:08.741Z,13.60
2018-01-27T09:38:36.368Z,14.83
2018-01-27T09:41:03.924Z,13.87
2018-01-27T09:43:31.793Z,13.80
2018-01-27T09:45:59.350Z,14.00
2018-01-27T09:48:26.885Z,12.57
2018-01-27T09:50:54.489Z,15.87
2018-01-27T09:53:22.068Z,15.00
2018-01-27T09:55:49.639Z,12.80
2018-01-27T09:58:17.243Z,15.20
2018-01-27T10:00:44.808Z,14.40
2018-01-27T10:03:12.994Z,14.37
2018-01-27T10:05:41.847Z,14.50
2018-01-27T10:08:09.441Z,36.67
2018-01-27T10:10:37.004Z,30.20
2018-01-27T10:13:04.691Z,16.00
2018-01-27T10:15:33.115Z,16.40
2018-01-27T10:18:00.681Z,18.07
2018-01-27T10:20:28.350Z,17.67
2018-01-27T10:22:56.164Z,17.93
2018-01-27T10:25:23.845Z,14.13
2018-01-27T10:27:51.398Z,21.37
2018-01-27T10:30:19.148Z,16.90
2018-01-27T10:32:46.717Z,17.93
2018-01-27T10:35:14.399Z,13.40
2018-01-27T10:37:42.017Z,13.03
2018-01-27T10:40:09.569Z,12.23
2018-01-27T10:42:37.112Z,14.27
2018-01-27T10:45:05.122Z,12.33
2018-01-27T10:47:32.714Z,11.60
2018-01-27T10:50:00.263Z,14.17
2018-01-27T10:52:27.872Z,14.13
2018-01-27T10:54:55.465Z,14.47
2018-01-27T10:57:24.231Z,12.90
2018-01-27T10:59:51.830Z,13.77
2018-01-27T11:02:19.418Z,13.60
2018-01-27T11:04:46.977Z,13.37
2018-01-27T11:07:15.711Z,13.40
2018-01-27T11:09:45.051Z,13.43
2018-01-27T11:12:12.836Z,13.07
2018-01-27T11:14:41.687Z,13.57
2018-01-27T11:17:09.307Z,11.90
2018-01-27T11:19:37.608Z,12.03
2018-01-27T11:22:05.267Z,13.13
2018-01-27T11:24:32.841Z,12.47
2018-01-27T11:27:00.397Z,13.20
2018-01-27T11:29:27.995Z,12.00
2018-01-27T11:31:55.601Z,13.10
2018-01-27T11:34:23.185Z,13.03
2018-01-27T11:36:51.323Z,11.00
2018-01-27T11:39:18.891Z,12.33
2018-01-27T11:41:50.672Z,13.13
2018-01-27T11:44:18.490Z,13.00
2018-01-27T11:46:46.128Z,13.90
2018-01-27T11:49:14.037Z,11.50
2018-01-27T11:51:41.598Z,12.47
2018-01-27T11:54:14.398Z,12.47
2018-01-27T11:56:45.035Z,13.23
2018-01-27T11:59:14.771Z,12.50
2018-01-27T12:01:42.514Z,11.60
2018-01-27T12:04:10.189Z,11.20
2018-01-27T12:06:37.810Z,18.07
2018-01-27T12:09:05.931Z,11.17
2018-01-27T12:11:33.535Z,12.40
2018-01-27T12:14:01.544Z,11.50
2018-01-27T12:16:30.982Z,15.13
2018-01-27T12:18:58.592Z,15.03
2018-01-27T12:21:27.996Z,13.23
2018-01-27T12:23:55.825Z,14.23
2018-01-27T12:26:23.921Z,15.00
2018-01-27T12:28:51.564Z,12.00
2018-01-27T12:31:20.300Z,11.03
2018-01-27T12:33:47.918Z,10.50
2018-01-27T12:36:15.708Z,11.20
2018-01-27T12:38:43.431Z,18.20
2018-01-27T12:41:11.507Z,10.87
2018-01-27T12:43:39.209Z,11.00
2018-01-27T12:46:06.848Z,11.20
2018-01-27T12:48:34.473Z,12.53
2018-01-27T12:51:02.041Z,11.67
2018-01-27T12:53:29.634Z,10.50
2018-01-27T12:55:57.296Z,11.60
2018-01-27T12:58:24.863Z,16.20
2018-01-27T13:00:52.456Z,10.93
2018-01-27T13:03:20.963Z,10.60
2018-01-27T13:05:48.593Z,11.33
2018-01-27T13:08:16.220Z,11.27
2018-01-27T13:10:43.808Z,13.57
2018-01-27T13:13:12.181Z,12.27
2018-01-27T13:15:39.793Z,11.03
2018-01-27T13:18:07.437Z,10.70
2018-01-27T13:20:35.015Z,11.93
2018-01-27T13:23:02.566Z,11.87
2018-01-27T13:25:31.554Z,11.90
2018-01-27T13:27:59.161Z,11.80
2018-01-27T13:30:26.852Z,12.10
2018-01-27T13:32:54.704Z,11.03
2018-01-27T13:35:23.438Z,9.90
2018-01-27T13:37:51.509Z,12.10
2018-01-27T13:40:19.164Z,11.37
2018-01-27T13:42:46.734Z,12.80
2018-01-27T13:45:15.364Z,13.40
2018-01-27T13:47:42.944Z,13.53
2018-01-27T13:50:10.591Z,12.37
2018-01-27T13:52:38.362Z,12.20
2018-01-27T13:55:06.817Z,13.83
2018-01-27T13:57:34.564Z,14.50
2018-01-27T14:00:02.466Z,13.83
2018-01-27T14:02:30.184Z,15.37
2018-01-27T14:04:57.944Z,12.50
2018-01-27T14:07:26.437Z,12.33
2018-01-27T14:09:54.081Z,14.03
2018-01-27T14:12:22.559Z,13.37
2018-01-27T14:14:50.121Z,12.40
2018-01-27T14:17:17.819Z,14.00
2018-01-27T14:19:45.367Z,12.90
2018-01-27T14:22:12.929Z,13.37
2018-01-27T14:24:40.779Z,13.67
2018-01-27T14:27:08.649Z,13.57
2018-01-27T14:29:36.610Z,13.10
2018-01-27T14:32:04.611Z,12.40
2018-01-27T14:34:32.501Z,14.07
2018-01-27T14:37:00.155Z,14.23
2018-01-27T14:39:28.893Z,13.33
2018-01-27T14:41:56.456Z,16.00
2018-01-27T14:44:24.885Z,16.70
2018-01-27T14:46:52.465Z,17.60
2018-01-27T14:49:21.663Z,16.63
2018-01-27T14:51:51.613Z,16.03
2018-01-27T14:54:23.433Z,14.70
2018-01-27T14:56:52.440Z,18.43
2018-01-27T14:59:20.761Z,17.33
2018-01-27T15:01:48.933Z,15.43
2018-01-27T15:04:19.233Z,15.43
2018-01-27T15:06:46.840Z,15.17
2018-01-27T15:09:18.748Z,16.30
2018-01-27T15:11:46.368Z,15.40
2018-01-27T15:14:13.967Z,15.60
2018-01-27T15:16:41.691Z,17.23
2018-01-27T15:19:09.860Z,15.33
2018-01-27T15:21:40.293Z,14.30
2018-01-27T15:24:07.881Z,14.43
2018-01-27T15:26:35.473Z,16.37
2018-01-27T15:29:05.343Z,18.20
2018-01-27T15:31:33.312Z,19.63
2018-01-27T15:34:00.924Z,18.03
2018-01-27T15:36:28.606Z,23.43
2018-01-27T15:38:56.932Z,21.77
2018-01-27T15:41:26.141Z,12.40
2018-01-27T15:43:53.939Z,10.77
2018-01-27T15:46:22.500Z,14.20
2018-01-27T15:48:50.188Z,10.70
2018-01-27T15:51:17.769Z,11.70
2018-01-27T15:53:46.579Z,11.60
2018-01-27T15:56:14.633Z,10.40
2018-01-27T15:58:42.283Z,12.60
2018-01-27T16:01:11.310Z,11.17
2018-01-27T16:03:39.036Z,12.73
2018-01-27T16:06:06.693Z,10.80
2018-01-27T16:08:34.247Z,12.33
2018-01-27T16:11:01.917Z,13.57
2018-01-27T16:13:30.006Z,12.00
2018-01-27T16:15:57.661Z,12.97
2018-01-27T16:18:27.271Z,15.90
2018-01-27T16:20:54.879Z,22.43
2018-01-27T16:23:22.529Z,15.13
2018-01-27T16:25:50.080Z,10.03
2018-01-27T16:28:17.687Z,10.67
2018-01-27T16:30:45.250Z,11.13
2018-01-27T16:33:14.057Z,15.63
2018-01-27T16:35:42.631Z,14.03
2018-01-27T16:38:10.265Z,11.07
2018-01-27T16:40:37.893Z,10.77
2018-01-27T16:43:06.041Z,11.90
2018-01-27T16:45:33.636Z,12.63
2018-01-27T16:48:01.272Z,12.10
2018-01-27T16:50:30.233Z,11.10
2018-01-27T16:52:58.077Z,11.07
2018-01-27T16:55:26.081Z,10.53
2018-01-27T16:57:53.749Z,10.60
2018-01-27T17:00:21.651Z,11.50
2018-01-27T17:02:49.300Z,10.77
2018-01-27T17:05:16.927Z,10.33
2018-01-27T17:07:44.770Z,20.60
2018-01-27T17:10:12.453Z,14.53
2018-01-27T17:12:40.056Z,11.83
2018-01-27T17:15:07.855Z,11.20
2018-01-27T17:17:36.137Z,12.00
2018-01-27T17:20:03.733Z,12.07
2018-01-27T17:22:31.288Z,13.10
2018-01-27T17:24:58.871Z,10.20
2018-01-27T17:27:27.670Z,11.53
2018-01-27T17:29:55.328Z,16.07
2018-01-27T17:32:23.276Z,17.20
2018-01-27T17:34:50.889Z,17.67
2018-01-27T17:37:18.616Z,18.63
2018-01-27T17:39:46.251Z,13.73
2018-01-27T17:42:13.931Z,15.40
2018-01-27T17:44:41.490Z,15.63
2018-01-27T17:49:42.928Z,12.00
2018-01-27T17:52:10.517Z,14.20
2018-01-27T17:54:38.123Z,14.27
2018-01-27T17:57:05.999Z,15.33
2018-01-27T17:59:33.596Z,11.27
2018-01-27T18:02:01.182Z,13.20
2018-01-27T18:04:28.796Z,14.17
2018-01-27T18:06:56.441Z,16.20
2018-01-27T18:09:24.788Z,15.13
2018-01-27T18:11:52.495Z,14.70
2018-01-27T18:14:20.501Z,17.13
2018-01-27T18:16:51.469Z,16.70
2018-01-27T18:19:19.592Z,14.00
2018-01-27T18:21:47.325Z,17.37
2018-01-27T18:24:14.947Z,17.60
2018-01-27T18:26:42.515Z,17.80
2018-01-27T18:29:10.661Z,19.40
2018-01-27T18:31:38.477Z,17.43
2018-01-27T18:34:06.032Z,16.60
2018-01-27T18:36:33.605Z,13.60
2018-01-27T18:39:01.181Z,13.40
2018-01-27T18:41:29.320Z,13.70
2018-01-27T18:43:56.874Z,11.40
2018-01-27T18:46:24.442Z,13.67
2018-01-27T18:48:52.008Z,12.80
2018-01-27T18:51:20.743Z,15.27
2018-01-27T18:53:48.543Z,20.57
2018-01-27T18:56:16.097Z,15.27
2018-01-27T18:58:43.667Z,19.73
2018-01-27T19:01:11.242Z,19.53
2018-01-27T19:03:39.037Z,16.80
2018-01-27T19:06:07.108Z,17.00
2018-01-27T19:08:35.217Z,15.23
2018-01-27T19:11:02.832Z,14.47
2018-01-27T19:13:30.452Z,15.80
2018-01-27T19:15:58.001Z,15.73
2018-01-27T19:18:25.617Z,14.83
2018-01-27T19:20:53.993Z,16.03
2018-01-27T19:23:22.988Z,17.20
2018-01-27T19:25:50.612Z,16.73
2018-01-27T19:28:19.535Z,16.73
2018-01-27T19:30:47.088Z,17.60
2018-01-27T19:33:15.106Z,19.13
2018-01-27T19:35:42.708Z,20.83
2018-01-27T19:38:12.380Z,21.73
2018-01-27T19:40:41.521Z,17.80
2018-01-27T19:43:10.528Z,19.13
2018-01-27T19:45:38.233Z,18.40
2018-01-27T19:48:08.303Z,18.00
2018-01-27T19:50:35.973Z,18.93
2018-01-27T19:53:03.616Z,19.53
2018-01-27T19:55:31.206Z,20.53
2018-01-27T19:57:58.781Z,17.57
2018-01-27T20:00:26.344Z,19.93
2018-01-27T20:02:53.886Z,22.67
2018-01-27T20:05:21.569Z,20.60
2018-01-27T20:07:49.185Z,20.77
2018-01-27T20:10:16.751Z,20.17
2018-01-27T20:12:44.567Z,21.97
2018-01-27T20:15:12.529Z,17.40
2018-01-27T20:17:40.093Z,17.90
2018-01-27T20:20:07.686Z,21.20
2018-01-27T20:22:35.284Z,23.37
2018-01-27T20:25:02.879Z,18.37
2018-01-27T20:27:30.450Z,18.70
2018-01-27T20:29:58.263Z,18.80
2018-01-27T20:32:25.841Z,23.57
2018-01-27T20:34:53.414Z,24.63
2018-01-27T20:37:22.361Z,20.97
2018-01-27T20:39:50.048Z,23.30
2018-01-27T20:42:18.098Z,23.77
2018-01-27T20:44:45.769Z,19.03
2018-01-27T20:47:13.319Z,21.50
2018-01-27T20:49:40.943Z,16.23
2018-01-27T20:52:08.537Z,14.97
2018-01-27T20:54:36.192Z,18.50
2018-01-27T20:57:03.751Z,17.60
2018-01-27T20:59:31.402Z,16.50
2018-01-27T21:01:59.316Z,21.70
2018-01-27T21:04:28.463Z,22.40
2018-01-27T21:06:56.129Z,20.73
2018-01-27T21:09:24.095Z,22.10
2018-01-27T21:11:51.850Z,21.30
2018-01-27T21:14:19.436Z,18.63
2018-01-27T21:16:46.996Z,18.93
2018-01-27T21:19:14.609Z,19.20
2018-01-27T21:21:42.202Z,18.73
2018-01-27T21:24:09.921Z,18.83
2018-01-27T21:26:37.493Z,19.40
2018-01-27T21:29:05.849Z,18.50
2018-01-27T21:31:33.412Z,17.77
2018-01-27T21:34:00.959Z,19.03
2018-01-27T21:36:28.533Z,19.07
2018-01-27T21:38:56.135Z,18.90
2018-01-27T21:41:24.081Z,19.03
2018-01-27T21:43:51.662Z,20.17
2018-01-27T21:46:19.305Z,19.50
2018-01-27T21:48:46.909Z,19.60
2018-01-27T21:51:14.548Z,20.30
2018-01-27T21:53:42.131Z,20.87
2018-01-27T21:56:09.891Z,19.50
2018-01-27T21:58:37.463Z,21.20
2018-01-27T22:01:05.051Z,21.17
2018-01-27T22:03:32.475Z,20.43
2018-01-27T22:06:00.073Z,20.27
2018-01-27T22:08:27.686Z,19.27
2018-01-27T22:10:55.264Z,20.10
2018-01-27T22:13:23.411Z,21.00
2018-01-27T22:15:51.064Z,22.07
2018-01-27T22:18:18.636Z,22.83
2018-01-27T22:20:46.236Z,21.10
2018-01-27T22:23:14.240Z,21.03
2018-01-27T22:25:41.799Z,21.97
2018-01-27T22:28:09.552Z,21.77
2018-01-27T22:30:37.125Z,17.60
2018-01-27T22:33:05.355Z,15.97
2018-01-27T22:35:33.017Z,16.53
2018-01-27T22:38:00.638Z,20.30
2018-01-27T22:40:28.253Z,15.23
2018-01-27T22:42:55.935Z,14.40
2018-01-27T22:45:23.580Z,14.87
2018-01-27T22:47:51.269Z,19.00
2018-01-27T22:50:18.844Z,18.43
2018-01-27T22:52:46.425Z,19.43
2018-01-27T22:55:14.004Z,16.90
2018-01-27T22:57:41.563Z,18.77
2018-01-27T23:00:09.129Z,42.60
2018-01-27T23:02:36.727Z,15.03
2018-01-27T23:05:04.352Z,20.70
2018-01-27T23:07:31.925Z,14.60
2018-01-27T23:09:59.550Z,19.87
2018-01-27T23:12:27.124Z,17.90
2018-01-27T23:14:55.631Z,25.70
2018-01-27T23:17:23.278Z,18.33
2018-01-27T23:19:50.840Z,17.13
2018-01-27T23:22:18.410Z,18.27
2018-01-27T23:24:45.997Z,17.50
2018-01-27T23:27:16.002Z,17.97
2018-01-27T23:29:43.613Z,21.43
2018-01-27T23:32:11.276Z,18.80
2018-01-27T23:34:38.919Z,20.90
2018-01-27T23:37:06.541Z,17.47
2018-01-27T23:39:34.115Z,15.63
2018-01-27T23:42:01.665Z,16.50
2018-01-27T23:44:31.096Z,17.77
2018-01-27T23:46:58.689Z,18.20
2018-01-27T23:49:26.248Z,18.07
2018-01-27T23:51:53.850Z,15.43
2018-01-27T23:54:26.479Z,15.87
2018-01-27T23:56:54.074Z,16.10
2018-01-27T23:59:21.677Z,15.13
